الصفحة الرئيسية
METAR-TAF:

METAR-TAF

مطار :

مدلاند, تكساس, الولايات المتحدة

دائرة عرض: 32-02-11N, خط طول: 102-06-03W, ارتفاع: 854 متر

مراقبة الطقس الحالي

تاريخ ووقت الإصدار 7 دقيقة قبل الساعة 03:15UTC
ريح 7 عقدة من الجنوب
درجة الحرارة 8°درجة مئوية
الرطوبة 76%
ضغط 1019 hPa
الرؤية: 16.1 كم
سماء صافية

METAR: KMDD 230315Z AUTO 19007KT 10SM CLR 08/04 A3008 RMK AO2 T00790041

زمن: 21:22 (03:22 UTC)


TAF: مفقودة

أرصاد الطقس والتوقعات من أكثر من 4000 مطار (تقارير الطقس للمطار METAR والتنبؤ بالطقس بالمطارTAF).

المحطات المتاحة هي النقط الصفراء والحمراء على الخريطة.

حرك المؤشر فوق النقطة لمعرفة اسم المحطة.

ثم انقر لمعرفة أرصاد وتوقعات الطقس.

لتغيير الخارطة: اضغط على الأزرار الخضراء مع رمز الصليب الأسود للتكبير. على الزر الأخضر مع شرطة للتصغير، أو على الأسهم الخضراء للخرائط المجاورة.


METAR-TAF: